NCAR-RAP Real-Time Weather Data

Output produced by METARs form (08 May 2021  02:11 UTC)
found at http://weather.rap.ucar.edu/surface/
 
KCRP 080151Z 14010KT 10SM FEW023 FEW250 23/20 A3001 RMK AO2 SLP162 T02280200
KCRP 080125Z 13010KT 10SM SCT025 BKN250 23/19 A3002 RMK AO2 T02280194
KCRP 080051Z 12012KT 10SM BKN023 BKN250 24/19 A3003 RMK AO2 SLP167 T02390194
KCRP 072351Z 12011KT 10SM BKN025 24/19 A3004 RMK AO2 SLP170 T02440194 10278 20244 56016
KCRP 072251Z 10014G20KT 10SM BKN027 26/20 A3004 RMK AO2 SLP172 T02610200
KCRP 072223Z 09013KT 10SM SCT024 BKN029 27/20 A3005 RMK AO2 T02670200
KCRP 072151Z 09015G19KT 10SM SCT025 BKN031 27/20 A3007 RMK AO2 SLP180 T02670200
KCRP 072051Z 10012KT 10SM SCT030 SCT035 27/20 A3008 RMK AO2 SLP185 T02720200 58025
KCRP 071951Z 10013G21KT 10SM SCT029 SCT034 SCT250 28/20 A3011 RMK AO2 SLP195 T02780200
KCRP 071851Z 08014G18KT 10SM FEW027 SCT031 SCT190 SCT250 28/19 A3013 RMK AO2 SLP202 T02780194
KCRP 071751Z 11013KT 10SM FEW033 SCT250 27/19 A3016 RMK AO2 SLP211 T02720189 10272 20150 58003
KCRP 071651Z 09011G18KT 10SM FEW024 FEW030 BKN250 27/19 A3017 RMK AO2 SLP215 T02720189
KCRP 071551Z 07011KT 10SM FEW025 SCT250 26/19 A3017 RMK AO2 SLP215 T02610194
KCRP 071451Z 10007KT 10SM FEW022 SCT250 25/19 A3017 RMK AO2 SLP214 T02500194 51017
KCRP 071351Z 11004KT 10SM FEW016 FEW250 23/21 A3016 RMK AO2 SLP210 T02330206
KCRP 071251Z 29003KT 10SM FEW250 19/18 A3015 RMK AO2 SLP207 T01890183
KCRP 071151Z 00000KT 10SM FEW250 15/15 A3012 RMK AO2 SLP197 T01500150 10172 20150 53005